sensor_id;sensor_type;location;lat;lon;timestamp;temperature;humidity
7738;DHT22;29398;45.328;5.558;2023-06-10T00:00:32;20.10;99.90
7738;DHT22;29398;45.328;5.558;2023-06-10T00:01:35;20.10;99.90
7738;DHT22;29398;45.328;5.558;2023-06-10T00:02:37;20.10;99.90
7738;DHT22;29398;45.328;5.558;2023-06-10T00:03:39;20.10;99.90
7738;DHT22;29398;45.328;5.558;2023-06-10T00:04:42;20.10;99.90
7738;DHT22;29398;45.328;5.558;2023-06-10T00:05:44;20.00;99.90
7738;DHT22;29398;45.328;5.558;2023-06-10T00:06:45;20.00;99.90
7738;DHT22;29398;45.328;5.558;2023-06-10T00:07:49;20.00;99.90
7738;DHT22;29398;45.328;5.558;2023-06-10T00:08:50;20.00;99.90
7738;DHT22;29398;45.328;5.558;2023-06-10T00:09:52;20.00;99.90
7738;DHT22;29398;45.328;5.558;2023-06-10T00:10:53;20.00;99.90
7738;DHT22;29398;45.328;5.558;2023-06-10T00:11:55;20.00;99.90
7738;DHT22;29398;45.328;5.558;2023-06-10T00:13:00;19.90;99.90
7738;DHT22;29398;45.328;5.558;2023-06-10T00:14:04;19.90;99.90
7738;DHT22;29398;45.328;5.558;2023-06-10T00:15:07;19.90;99.90
7738;DHT22;29398;45.328;5.558;2023-06-10T00:16:09;19.90;99.90
7738;DHT22;29398;45.328;5.558;2023-06-10T00:17:10;19.80;99.90
7738;DHT22;29398;45.328;5.558;2023-06-10T00:18:12;19.80;99.90
7738;DHT22;29398;45.328;5.558;2023-06-10T00:19:13;19.80;99.90
7738;DHT22;29398;45.328;5.558;2023-06-10T00:20:16;19.80;99.90
7738;DHT22;29398;45.328;5.558;2023-06-10T00:21:17;19.80;99.90
7738;DHT22;29398;45.328;5.558;2023-06-10T00:22:19;19.80;99.90
7738;DHT22;29398;45.328;5.558;2023-06-10T00:23:22;19.80;99.90
7738;DHT22;29398;45.328;5.558;2023-06-10T00:24:25;19.70;99.90
7738;DHT22;29398;45.328;5.558;2023-06-10T00:25:26;19.70;99.90
7738;DHT22;29398;45.328;5.558;2023-06-10T00:26:28;19.80;99.90
7738;DHT22;29398;45.328;5.558;2023-06-10T00:27:29;19.70;99.90
7738;DHT22;29398;45.328;5.558;2023-06-10T00:28:35;19.70;99.90
7738;DHT22;29398;45.328;5.558;2023-06-10T00:29:38;19.70;99.90
7738;DHT22;29398;45.328;5.558;2023-06-10T00:30:40;19.80;99.90
7738;DHT22;29398;45.328;5.558;2023-06-10T00:31:45;19.60;99.90
7738;DHT22;29398;45.328;5.558;2023-06-10T00:32:47;19.60;99.90
7738;DHT22;29398;45.328;5.558;2023-06-10T00:33:48;19.60;99.90
7738;DHT22;29398;45.328;5.558;2023-06-10T00:34:50;19.60;99.90
7738;DHT22;29398;45.328;5.558;2023-06-10T00:35:51;19.60;99.90
7738;DHT22;29398;45.328;5.558;2023-06-10T00:36:53;19.60;99.90
7738;DHT22;29398;45.328;5.558;2023-06-10T00:37:54;19.50;99.90
7738;DHT22;29398;45.328;5.558;2023-06-10T00:38:56;19.60;99.90
7738;DHT22;29398;45.328;5.558;2023-06-10T00:39:58;19.50;99.90
7738;DHT22;29398;45.328;5.558;2023-06-10T00:41:00;19.60;99.90
7738;DHT22;29398;45.328;5.558;2023-06-10T00:42:01;19.60;99.90
7738;DHT22;29398;45.328;5.558;2023-06-10T00:43:07;19.50;99.90
7738;DHT22;29398;45.328;5.558;2023-06-10T00:44:08;19.50;99.90
7738;DHT22;29398;45.328;5.558;2023-06-10T00:45:12;19.50;99.90
7738;DHT22;29398;45.328;5.558;2023-06-10T00:46:13;19.50;99.90
7738;DHT22;29398;45.328;5.558;2023-06-10T00:47:16;19.50;99.90
7738;DHT22;29398;45.328;5.558;2023-06-10T00:48:17;19.50;99.90
7738;DHT22;29398;45.328;5.558;2023-06-10T00:49:19;19.50;99.90
7738;DHT22;29398;45.328;5.558;2023-06-10T00:50:21;19.40;99.90
7738;DHT22;29398;45.328;5.558;2023-06-10T00:51:22;19.40;99.90
7738;DHT22;29398;45.328;5.558;2023-06-10T00:52:27;19.40;99.90
7738;DHT22;29398;45.328;5.558;2023-06-10T00:53:29;19.40;99.90
7738;DHT22;29398;45.328;5.558;2023-06-10T00:54:30;19.40;99.90
7738;DHT22;29398;45.328;5.558;2023-06-10T00:55:33;19.40;99.90
7738;DHT22;29398;45.328;5.558;2023-06-10T00:56:35;19.40;99.90
7738;DHT22;29398;45.328;5.558;2023-06-10T00:57:38;19.40;99.90
7738;DHT22;29398;45.328;5.558;2023-06-10T00:58:39;19.40;99.90
7738;DHT22;29398;45.328;5.558;2023-06-10T00:59:42;19.40;99.90
7738;DHT22;29398;45.328;5.558;2023-06-10T01:00:45;19.40;99.90
7738;DHT22;29398;45.328;5.558;2023-06-10T01:01:47;19.40;99.90
7738;DHT22;29398;45.328;5.558;2023-06-10T01:02:48;19.40;99.90
7738;DHT22;29398;45.328;5.558;2023-06-10T01:03:54;19.40;99.90
7738;DHT22;29398;45.328;5.558;2023-06-10T01:04:55;19.40;99.90
7738;DHT22;29398;45.328;5.558;2023-06-10T01:06:03;19.40;99.90
7738;DHT22;29398;45.328;5.558;2023-06-10T01:07:15;19.40;99.90
7738;DHT22;29398;45.328;5.558;2023-06-10T01:08:25;19.40;99.90
7738;DHT22;29398;45.328;5.558;2023-06-10T01:09:33;19.40;99.90
7738;DHT22;29398;45.328;5.558;2023-06-10T01:10:41;19.40;99.90
7738;DHT22;29398;45.328;5.558;2023-06-10T01:11:49;19.40;99.90
7738;DHT22;29398;45.328;5.558;2023-06-10T01:12:59;19.30;99.90
7738;DHT22;29398;45.328;5.558;2023-06-10T01:14:04;19.30;99.90
7738;DHT22;29398;45.328;5.558;2023-06-10T01:15:09;19.30;99.90
7738;DHT22;29398;45.328;5.558;2023-06-10T01:16:12;19.30;99.90
7738;DHT22;29398;45.328;5.558;2023-06-10T01:17:14;19.30;99.90
7738;DHT22;29398;45.328;5.558;2023-06-10T01:18:17;19.30;99.90
7738;DHT22;29398;45.328;5.558;2023-06-10T01:19:19;19.30;99.90
7738;DHT22;29398;45.328;5.558;2023-06-10T01:20:20;19.30;99.90
7738;DHT22;29398;45.328;5.558;2023-06-10T01:21:24;19.30;99.90
7738;DHT22;29398;45.328;5.558;2023-06-10T01:22:26;19.30;99.90
7738;DHT22;29398;45.328;5.558;2023-06-10T01:23:29;19.30;99.90
7738;DHT22;29398;45.328;5.558;2023-06-10T01:24:30;19.30;99.90
7738;DHT22;29398;45.328;5.558;2023-06-10T01:25:42;19.30;99.90
7738;DHT22;29398;45.328;5.558;2023-06-10T01:26:45;19.30;99.90
7738;DHT22;29398;45.328;5.558;2023-06-10T01:27:50;19.30;99.90
7738;DHT22;29398;45.328;5.558;2023-06-10T01:28:54;19.30;99.90
7738;DHT22;29398;45.328;5.558;2023-06-10T01:30:02;19.30;99.90
7738;DHT22;29398;45.328;5.558;2023-06-10T01:31:09;19.30;99.90
7738;DHT22;29398;45.328;5.558;2023-06-10T01:32:15;19.30;99.90
7738;DHT22;29398;45.328;5.558;2023-06-10T01:33:21;19.30;99.90
7738;DHT22;29398;45.328;5.558;2023-06-10T01:34:26;19.30;99.90
7738;DHT22;29398;45.328;5.558;2023-06-10T01:35:29;19.30;99.90
7738;DHT22;29398;45.328;5.558;2023-06-10T01:36:34;19.30;99.90
7738;DHT22;29398;45.328;5.558;2023-06-10T01:37:37;19.30;99.90
7738;DHT22;29398;45.328;5.558;2023-06-10T01:38:43;19.30;99.90
7738;DHT22;29398;45.328;5.558;2023-06-10T01:39:45;19.30;99.90
7738;DHT22;29398;45.328;5.558;2023-06-10T01:40:48;19.30;99.90
7738;DHT22;29398;45.328;5.558;2023-06-10T01:41:51;19.30;99.90
7738;DHT22;29398;45.328;5.558;2023-06-10T01:42:54;19.40;99.90
7738;DHT22;29398;45.328;5.558;2023-06-10T01:43:55;19.40;99.90
7738;DHT22;29398;45.328;5.558;2023-06-10T01:44:57;19.40;99.90
7738;DHT22;29398;45.328;5.558;2023-06-10T01:46:00;19.30;99.90
7738;DHT22;29398;45.328;5.558;2023-06-10T01:47:02;19.40;99.90
7738;DHT22;29398;45.328;5.558;2023-06-10T01:48:04;19.30;99.90
7738;DHT22;29398;45.328;5.558;2023-06-10T01:49:06;19.40;99.90
7738;DHT22;29398;45.328;5.558;2023-06-10T01:50:08;19.30;99.90
7738;DHT22;29398;45.328;5.558;2023-06-10T01:51:10;19.30;99.90
7738;DHT22;29398;45.328;5.558;2023-06-10T01:52:13;19.30;99.90
7738;DHT22;29398;45.328;5.558;2023-06-10T01:53:15;19.30;99.90
7738;DHT22;29398;45.328;5.558;2023-06-10T01:54:16;19.30;99.90
7738;DHT22;29398;45.328;5.558;2023-06-10T01:55:18;19.30;99.90
7738;DHT22;29398;45.328;5.558;2023-06-10T01:56:19;19.30;99.90
7738;DHT22;29398;45.328;5.558;2023-06-10T01:57:21;19.30;99.90
7738;DHT22;29398;45.328;5.558;2023-06-10T01:58:22;19.30;99.90
7738;DHT22;29398;45.328;5.558;2023-06-10T01:59:24;19.30;99.90
7738;DHT22;29398;45.328;5.558;2023-06-10T02:00:25;19.30;99.90
7738;DHT22;29398;45.328;5.558;2023-06-10T02:01:28;19.20;99.90
7738;DHT22;29398;45.328;5.558;2023-06-10T02:02:30;19.30;99.90
7738;DHT22;29398;45.328;5.558;2023-06-10T02:03:35;19.20;99.90
7738;DHT22;29398;45.328;5.558;2023-06-10T02:04:37;19.20;99.90
7738;DHT22;29398;45.328;5.558;2023-06-10T02:05:39;19.20;99.90
7738;DHT22;29398;45.328;5.558;2023-06-10T02:06:40;19.20;99.90
7738;DHT22;29398;45.328;5.558;2023-06-10T02:07:43;19.20;99.90
7738;DHT22;29398;45.328;5.558;2023-06-10T02:08:44;19.20;99.90
7738;DHT22;29398;45.328;5.558;2023-06-10T02:09:46;19.20;99.90
7738;DHT22;29398;45.328;5.558;2023-06-10T02:10:47;19.20;99.90
7738;DHT22;29398;45.328;5.558;2023-06-10T02:11:49;19.20;99.90
7738;DHT22;29398;45.328;5.558;2023-06-10T02:12:50;19.20;99.90
7738;DHT22;29398;45.328;5.558;2023-06-10T02:13:53;19.20;99.90
7738;DHT22;29398;45.328;5.558;2023-06-10T02:14:54;19.20;99.90
7738;DHT22;29398;45.328;5.558;2023-06-10T02:15:56;19.20;99.90
7738;DHT22;29398;45.328;5.558;2023-06-10T02:16:57;19.20;99.90
7738;DHT22;29398;45.328;5.558;2023-06-10T02:17:59;19.10;99.90
7738;DHT22;29398;45.328;5.558;2023-06-10T02:19:01;19.10;99.90
7738;DHT22;29398;45.328;5.558;2023-06-10T02:20:07;19.10;99.90
7738;DHT22;29398;45.328;5.558;2023-06-10T02:21:11;19.10;99.90
7738;DHT22;29398;45.328;5.558;2023-06-10T02:22:13;19.10;99.90
7738;DHT22;29398;45.328;5.558;2023-06-10T02:23:16;19.10;99.90
7738;DHT22;29398;45.328;5.558;2023-06-10T02:24:18;19.10;99.90
7738;DHT22;29398;45.328;5.558;2023-06-10T02:25:19;19.10;99.90
7738;DHT22;29398;45.328;5.558;2023-06-10T02:26:21;19.10;99.90
7738;DHT22;29398;45.328;5.558;2023-06-10T02:27:22;19.10;99.90
7738;DHT22;29398;45.328;5.558;2023-06-10T02:28:24;19.10;99.90
7738;DHT22;29398;45.328;5.558;2023-06-10T02:29:25;19.10;99.90
7738;DHT22;29398;45.328;5.558;2023-06-10T02:30:27;19.10;99.90
7738;DHT22;29398;45.328;5.558;2023-06-10T02:31:28;19.10;99.90
7738;DHT22;29398;45.328;5.558;2023-06-10T02:32:30;19.10;99.90
7738;DHT22;29398;45.328;5.558;2023-06-10T02:33:31;19.10;99.90
7738;DHT22;29398;45.328;5.558;2023-06-10T02:34:34;19.10;99.90
7738;DHT22;29398;45.328;5.558;2023-06-10T02:35:37;19.10;99.90
7738;DHT22;29398;45.328;5.558;2023-06-10T02:36:39;19.10;99.90
7738;DHT22;29398;45.328;5.558;2023-06-10T02:37:42;19.10;99.90
7738;DHT22;29398;45.328;5.558;2023-06-10T02:38:45;19.10;99.90
7738;DHT22;29398;45.328;5.558;2023-06-10T02:39:46;19.10;99.90
7738;DHT22;29398;45.328;5.558;2023-06-10T02:40:49;19.10;99.90
7738;DHT22;29398;45.328;5.558;2023-06-10T02:41:50;19.00;99.90
7738;DHT22;29398;45.328;5.558;2023-06-10T02:42:52;19.10;99.90
7738;DHT22;29398;45.328;5.558;2023-06-10T02:43:54;19.10;99.90
7738;DHT22;29398;45.328;5.558;2023-06-10T02:44:57;19.00;99.90
7738;DHT22;29398;45.328;5.558;2023-06-10T02:46:09;19.10;99.90
7738;DHT22;29398;45.328;5.558;2023-06-10T02:47:12;19.00;99.90
7738;DHT22;29398;45.328;5.558;2023-06-10T02:48:13;19.10;99.90
7738;DHT22;29398;45.328;5.558;2023-06-10T02:49:16;19.10;99.90
7738;DHT22;29398;45.328;5.558;2023-06-10T02:50:17;19.10;99.90
7738;DHT22;29398;45.328;5.558;2023-06-10T02:51:30;19.10;99.90
7738;DHT22;29398;45.328;5.558;2023-06-10T02:52:35;19.10;99.90
7738;DHT22;29398;45.328;5.558;2023-06-10T02:53:36;19.10;99.90
7738;DHT22;29398;45.328;5.558;2023-06-10T02:54:44;19.10;99.90
7738;DHT22;29398;45.328;5.558;2023-06-10T02:55:46;19.10;99.90
7738;DHT22;29398;45.328;5.558;2023-06-10T02:56:52;19.10;99.90
7738;DHT22;29398;45.328;5.558;2023-06-10T02:57:57;19.10;99.90
7738;DHT22;29398;45.328;5.558;2023-06-10T02:59:00;19.10;99.90
7738;DHT22;29398;45.328;5.558;2023-06-10T03:00:03;19.10;99.90
7738;DHT22;29398;45.328;5.558;2023-06-10T03:01:10;19.10;99.90
7738;DHT22;29398;45.328;5.558;2023-06-10T03:02:25;19.10;99.90
7738;DHT22;29398;45.328;5.558;2023-06-10T03:03:29;19.10;99.90
7738;DHT22;29398;45.328;5.558;2023-06-10T03:04:40;19.10;99.90
7738;DHT22;29398;45.328;5.558;2023-06-10T03:05:48;19.10;99.90
7738;DHT22;29398;45.328;5.558;2023-06-10T03:06:51;19.10;99.90
7738;DHT22;29398;45.328;5.558;2023-06-10T03:07:59;19.10;99.90
7738;DHT22;29398;45.328;5.558;2023-06-10T03:09:00;19.10;99.90
7738;DHT22;29398;45.328;5.558;2023-06-10T03:10:05;19.10;99.90
7738;DHT22;29398;45.328;5.558;2023-06-10T03:11:06;20.80;99.90
7738;DHT22;29398;45.328;5.558;2023-06-10T03:12:10;19.10;99.90
7738;DHT22;29398;45.328;5.558;2023-06-10T03:13:16;19.10;99.90
7738;DHT22;29398;45.328;5.558;2023-06-10T03:14:19;19.10;99.90
7738;DHT22;29398;45.328;5.558;2023-06-10T03:15:20;19.10;99.90
7738;DHT22;29398;45.328;5.558;2023-06-10T03:16:22;19.10;99.90
7738;DHT22;29398;45.328;5.558;2023-06-10T03:17:26;19.10;99.90
7738;DHT22;29398;45.328;5.558;2023-06-10T03:18:28;19.10;99.90
7738;DHT22;29398;45.328;5.558;2023-06-10T03:19:30;19.10;99.90
7738;DHT22;29398;45.328;5.558;2023-06-10T03:20:32;19.10;99.90
7738;DHT22;29398;45.328;5.558;2023-06-10T03:21:37;19.10;99.90
7738;DHT22;29398;45.328;5.558;2023-06-10T03:22:42;19.10;99.90
7738;DHT22;29398;45.328;5.558;2023-06-10T03:23:45;19.10;99.90
7738;DHT22;29398;45.328;5.558;2023-06-10T03:24:47;19.10;99.90
7738;DHT22;29398;45.328;5.558;2023-06-10T03:25:52;19.10;99.90
7738;DHT22;29398;45.328;5.558;2023-06-10T03:26:55;19.10;99.90
7738;DHT22;29398;45.328;5.558;2023-06-10T03:27:57;19.10;99.90
7738;DHT22;29398;45.328;5.558;2023-06-10T03:28:59;19.10;99.90
7738;DHT22;29398;45.328;5.558;2023-06-10T03:30:00;19.10;99.90
7738;DHT22;29398;45.328;5.558;2023-06-10T03:31:03;19.10;99.90
7738;DHT22;29398;45.328;5.558;2023-06-10T03:32:07;19.10;99.90
7738;DHT22;29398;45.328;5.558;2023-06-10T03:33:10;19.20;99.90
7738;DHT22;29398;45.328;5.558;2023-06-10T03:34:12;19.20;99.90
7738;DHT22;29398;45.328;5.558;2023-06-10T03:35:14;19.10;99.90
7738;DHT22;29398;45.328;5.558;2023-06-10T03:36:16;19.20;99.90
7738;DHT22;29398;45.328;5.558;2023-06-10T03:37:18;19.20;99.90
7738;DHT22;29398;45.328;5.558;2023-06-10T03:38:22;19.10;99.90
7738;DHT22;29398;45.328;5.558;2023-06-10T03:39:25;19.20;99.90
7738;DHT22;29398;45.328;5.558;2023-06-10T03:40:31;19.20;99.90
7738;DHT22;29398;45.328;5.558;2023-06-10T03:41:34;19.10;99.90
7738;DHT22;29398;45.328;5.558;2023-06-10T03:42:35;19.20;99.90
7738;DHT22;29398;45.328;5.558;2023-06-10T03:43:38;19.10;99.90
7738;DHT22;29398;45.328;5.558;2023-06-10T03:44:41;19.20;99.90
7738;DHT22;29398;45.328;5.558;2023-06-10T03:45:42;19.20;99.90
7738;DHT22;29398;45.328;5.558;2023-06-10T03:46:45;19.10;99.90
7738;DHT22;29398;45.328;5.558;2023-06-10T03:47:46;19.20;99.90
7738;DHT22;29398;45.328;5.558;2023-06-10T03:48:49;19.10;99.90
7738;DHT22;29398;45.328;5.558;2023-06-10T03:49:50;19.10;99.90
7738;DHT22;29398;45.328;5.558;2023-06-10T03:50:53;19.10;99.90
7738;DHT22;29398;45.328;5.558;2023-06-10T03:51:56;19.10;99.90
7738;DHT22;29398;45.328;5.558;2023-06-10T03:52:58;19.10;99.90
7738;DHT22;29398;45.328;5.558;2023-06-10T03:54:00;19.10;99.90
7738;DHT22;29398;45.328;5.558;2023-06-10T03:55:03;19.10;99.90
7738;DHT22;29398;45.328;5.558;2023-06-10T03:56:05;19.10;99.90
7738;DHT22;29398;45.328;5.558;2023-06-10T03:57:09;19.10;99.90
7738;DHT22;29398;45.328;5.558;2023-06-10T03:58:10;19.00;99.90
7738;DHT22;29398;45.328;5.558;2023-06-10T03:59:14;19.10;99.90
7738;DHT22;29398;45.328;5.558;2023-06-10T04:00:16;19.10;99.90
7738;DHT22;29398;45.328;5.558;2023-06-10T04:01:21;19.10;99.90
7738;DHT22;29398;45.328;5.558;2023-06-10T04:02:24;19.10;99.90
7738;DHT22;29398;45.328;5.558;2023-06-10T04:03:26;19.10;99.90
7738;DHT22;29398;45.328;5.558;2023-06-10T04:04:28;19.10;99.90
7738;DHT22;29398;45.328;5.558;2023-06-10T04:05:30;19.10;99.90
7738;DHT22;29398;45.328;5.558;2023-06-10T04:06:32;19.10;99.90
7738;DHT22;29398;45.328;5.558;2023-06-10T04:07:34;19.10;99.90
7738;DHT22;29398;45.328;5.558;2023-06-10T04:08:35;19.10;99.90
7738;DHT22;29398;45.328;5.558;2023-06-10T04:09:37;19.10;99.90
7738;DHT22;29398;45.328;5.558;2023-06-10T04:10:39;19.10;99.90
7738;DHT22;29398;45.328;5.558;2023-06-10T04:11:42;19.10;99.90
7738;DHT22;29398;45.328;5.558;2023-06-10T04:12:45;19.10;99.90
7738;DHT22;29398;45.328;5.558;2023-06-10T04:13:48;19.10;99.90
7738;DHT22;29398;45.328;5.558;2023-06-10T04:14:49;19.10;99.90
7738;DHT22;29398;45.328;5.558;2023-06-10T04:15:52;19.10;99.90
7738;DHT22;29398;45.328;5.558;2023-06-10T04:16:54;19.10;99.90
7738;DHT22;29398;45.328;5.558;2023-06-10T04:17:57;19.10;99.90
7738;DHT22;29398;45.328;5.558;2023-06-10T04:19:00;19.10;99.90
7738;DHT22;29398;45.328;5.558;2023-06-10T04:20:03;19.10;99.90
7738;DHT22;29398;45.328;5.558;2023-06-10T04:21:04;19.10;99.90
7738;DHT22;29398;45.328;5.558;2023-06-10T04:22:07;19.10;99.90
7738;DHT22;29398;45.328;5.558;2023-06-10T04:23:08;19.10;99.90
7738;DHT22;29398;45.328;5.558;2023-06-10T04:24:11;19.10;99.90
7738;DHT22;29398;45.328;5.558;2023-06-10T04:25:13;19.10;99.90
7738;DHT22;29398;45.328;5.558;2023-06-10T04:26:16;19.10;99.90
7738;DHT22;29398;45.328;5.558;2023-06-10T04:27:17;19.20;99.90
7738;DHT22;29398;45.328;5.558;2023-06-10T04:28:20;19.20;99.90
7738;DHT22;29398;45.328;5.558;2023-06-10T04:29:21;19.20;99.90
7738;DHT22;29398;45.328;5.558;2023-06-10T04:30:23;19.20;99.90
7738;DHT22;29398;45.328;5.558;2023-06-10T04:31:25;19.10;99.90
7738;DHT22;29398;45.328;5.558;2023-06-10T04:32:28;19.20;99.90
7738;DHT22;29398;45.328;5.558;2023-06-10T04:33:29;19.20;99.90
7738;DHT22;29398;45.328;5.558;2023-06-10T04:34:33;19.20;99.90
7738;DHT22;29398;45.328;5.558;2023-06-10T04:35:34;19.20;99.90
7738;DHT22;29398;45.328;5.558;2023-06-10T04:36:38;19.20;99.90
7738;DHT22;29398;45.328;5.558;2023-06-10T04:37:40;19.20;99.90
7738;DHT22;29398;45.328;5.558;2023-06-10T04:38:43;19.20;99.90
7738;DHT22;29398;45.328;5.558;2023-06-10T04:39:44;19.20;99.90
7738;DHT22;29398;45.328;5.558;2023-06-10T04:40:46;19.20;99.90
7738;DHT22;29398;45.328;5.558;2023-06-10T04:41:49;19.20;99.90
7738;DHT22;29398;45.328;5.558;2023-06-10T04:42:51;19.20;99.90
7738;DHT22;29398;45.328;5.558;2023-06-10T04:43:53;19.20;99.90
7738;DHT22;29398;45.328;5.558;2023-06-10T04:44:55;19.20;99.90
7738;DHT22;29398;45.328;5.558;2023-06-10T04:45:56;19.20;99.90
7738;DHT22;29398;45.328;5.558;2023-06-10T04:46:59;19.20;99.90
7738;DHT22;29398;45.328;5.558;2023-06-10T04:48:00;19.20;99.90
7738;DHT22;29398;45.328;5.558;2023-06-10T04:49:02;19.20;99.90
7738;DHT22;29398;45.328;5.558;2023-06-10T04:50:03;19.10;99.90
7738;DHT22;29398;45.328;5.558;2023-06-10T04:51:06;19.20;99.90
7738;DHT22;29398;45.328;5.558;2023-06-10T04:52:07;19.20;99.90
7738;DHT22;29398;45.328;5.558;2023-06-10T04:53:13;19.10;99.90
7738;DHT22;29398;45.328;5.558;2023-06-10T04:54:19;19.10;99.90
7738;DHT22;29398;45.328;5.558;2023-06-10T04:55:21;19.10;99.90
7738;DHT22;29398;45.328;5.558;2023-06-10T04:56:22;19.10;99.90
7738;DHT22;29398;45.328;5.558;2023-06-10T04:57:24;19.10;99.90
7738;DHT22;29398;45.328;5.558;2023-06-10T04:58:25;19.20;99.90
7738;DHT22;29398;45.328;5.558;2023-06-10T04:59:28;19.20;99.90
7738;DHT22;29398;45.328;5.558;2023-06-10T05:00:33;19.10;99.90
7738;DHT22;29398;45.328;5.558;2023-06-10T05:01:35;19.10;99.90
7738;DHT22;29398;45.328;5.558;2023-06-10T05:02:36;19.10;99.90
7738;DHT22;29398;45.328;5.558;2023-06-10T05:03:37;19.20;99.90
7738;DHT22;29398;45.328;5.558;2023-06-10T05:04:39;19.10;99.90
7738;DHT22;29398;45.328;5.558;2023-06-10T05:05:41;19.20;99.90
7738;DHT22;29398;45.328;5.558;2023-06-10T05:06:42;19.10;99.90
7738;DHT22;29398;45.328;5.558;2023-06-10T05:07:44;19.10;99.90
7738;DHT22;29398;45.328;5.558;2023-06-10T05:08:45;19.10;99.90
7738;DHT22;29398;45.328;5.558;2023-06-10T05:09:47;19.10;99.90
7738;DHT22;29398;45.328;5.558;2023-06-10T05:10:48;19.10;99.90
7738;DHT22;29398;45.328;5.558;2023-06-10T05:11:50;19.10;99.90
7738;DHT22;29398;45.328;5.558;2023-06-10T05:12:51;19.10;99.90
7738;DHT22;29398;45.328;5.558;2023-06-10T05:13:52;19.10;99.90
7738;DHT22;29398;45.328;5.558;2023-06-10T05:14:55;19.20;99.90
7738;DHT22;29398;45.328;5.558;2023-06-10T05:15:57;19.20;99.90
7738;DHT22;29398;45.328;5.558;2023-06-10T05:16:58;19.10;99.90
7738;DHT22;29398;45.328;5.558;2023-06-10T05:18:00;19.20;99.90
7738;DHT22;29398;45.328;5.558;2023-06-10T05:19:03;19.20;99.90
7738;DHT22;29398;45.328;5.558;2023-06-10T05:20:06;19.20;99.90
7738;DHT22;29398;45.328;5.558;2023-06-10T05:21:07;19.20;99.90
7738;DHT22;29398;45.328;5.558;2023-06-10T05:22:09;19.20;99.90
7738;DHT22;29398;45.328;5.558;2023-06-10T05:23:10;19.30;99.90
7738;DHT22;29398;45.328;5.558;2023-06-10T05:24:12;19.30;99.90
7738;DHT22;29398;45.328;5.558;2023-06-10T05:25:13;19.30;99.90
7738;DHT22;29398;45.328;5.558;2023-06-10T05:26:15;19.30;99.90
7738;DHT22;29398;45.328;5.558;2023-06-10T05:27:16;19.30;99.90
7738;DHT22;29398;45.328;5.558;2023-06-10T05:28:18;19.30;99.90
7738;DHT22;29398;45.328;5.558;2023-06-10T05:29:20;19.30;99.90
7738;DHT22;29398;45.328;5.558;2023-06-10T05:30:24;19.30;99.90
7738;DHT22;29398;45.328;5.558;2023-06-10T05:31:26;19.30;99.90
7738;DHT22;29398;45.328;5.558;2023-06-10T05:32:28;19.40;99.90
7738;DHT22;29398;45.328;5.558;2023-06-10T05:33:29;19.40;99.90
7738;DHT22;29398;45.328;5.558;2023-06-10T05:34:31;19.40;99.90
7738;DHT22;29398;45.328;5.558;2023-06-10T05:35:32;19.40;99.90
7738;DHT22;29398;45.328;5.558;2023-06-10T05:36:34;19.50;99.90
7738;DHT22;29398;45.328;5.558;2023-06-10T05:37:35;19.50;99.90
7738;DHT22;29398;45.328;5.558;2023-06-10T05:38:37;19.50;99.90
7738;DHT22;29398;45.328;5.558;2023-06-10T05:39:38;19.50;99.90
7738;DHT22;29398;45.328;5.558;2023-06-10T05:40:40;19.50;99.90
7738;DHT22;29398;45.328;5.558;2023-06-10T05:41:41;19.50;99.90
7738;DHT22;29398;45.328;5.558;2023-06-10T05:42:43;19.50;99.90
7738;DHT22;29398;45.328;5.558;2023-06-10T05:43:44;19.60;99.90
7738;DHT22;29398;45.328;5.558;2023-06-10T05:44:46;19.60;99.90
7738;DHT22;29398;45.328;5.558;2023-06-10T05:45:48;19.60;99.90
7738;DHT22;29398;45.328;5.558;2023-06-10T05:46:50;19.70;99.90
7738;DHT22;29398;45.328;5.558;2023-06-10T05:47:51;19.70;99.90
7738;DHT22;29398;45.328;5.558;2023-06-10T05:48:53;19.70;99.90
7738;DHT22;29398;45.328;5.558;2023-06-10T05:49:55;19.70;99.90
7738;DHT22;29398;45.328;5.558;2023-06-10T05:50:57;19.70;99.90
7738;DHT22;29398;45.328;5.558;2023-06-10T05:51:58;19.70;99.90
7738;DHT22;29398;45.328;5.558;2023-06-10T05:53:00;19.80;99.90
7738;DHT22;29398;45.328;5.558;2023-06-10T05:54:01;19.80;99.90
7738;DHT22;29398;45.328;5.558;2023-06-10T05:55:04;19.80;99.90
7738;DHT22;29398;45.328;5.558;2023-06-10T05:56:05;19.80;99.90
7738;DHT22;29398;45.328;5.558;2023-06-10T05:57:07;19.90;99.90
7738;DHT22;29398;45.328;5.558;2023-06-10T05:58:09;19.90;99.90
7738;DHT22;29398;45.328;5.558;2023-06-10T05:59:12;19.90;99.90
7738;DHT22;29398;45.328;5.558;2023-06-10T06:00:14;20.00;99.90
7738;DHT22;29398;45.328;5.558;2023-06-10T06:01:18;20.00;99.90
7738;DHT22;29398;45.328;5.558;2023-06-10T06:02:19;20.00;99.90
7738;DHT22;29398;45.328;5.558;2023-06-10T06:03:20;20.00;99.90
7738;DHT22;29398;45.328;5.558;2023-06-10T06:04:22;20.10;99.90
7738;DHT22;29398;45.328;5.558;2023-06-10T06:05:23;20.10;99.90
7738;DHT22;29398;45.328;5.558;2023-06-10T06:06:24;20.10;99.90
7738;DHT22;29398;45.328;5.558;2023-06-10T06:07:27;20.10;99.90
7738;DHT22;29398;45.328;5.558;2023-06-10T06:08:27;20.10;99.90
7738;DHT22;29398;45.328;5.558;2023-06-10T06:09:30;20.20;99.90
7738;DHT22;29398;45.328;5.558;2023-06-10T06:10:31;20.20;99.90
7738;DHT22;29398;45.328;5.558;2023-06-10T06:11:34;20.20;99.90
7738;DHT22;29398;45.328;5.558;2023-06-10T06:12:35;20.20;99.90
7738;DHT22;29398;45.328;5.558;2023-06-10T06:13:37;20.20;99.90
7738;DHT22;29398;45.328;5.558;2023-06-10T06:14:38;20.20;99.90
7738;DHT22;29398;45.328;5.558;2023-06-10T06:15:41;20.20;99.90
7738;DHT22;29398;45.328;5.558;2023-06-10T06:16:43;20.20;99.90
7738;DHT22;29398;45.328;5.558;2023-06-10T06:17:45;20.30;99.90
7738;DHT22;29398;45.328;5.558;2023-06-10T06:18:46;20.30;99.90
7738;DHT22;29398;45.328;5.558;2023-06-10T06:19:48;20.30;99.90
7738;DHT22;29398;45.328;5.558;2023-06-10T06:20:50;20.30;99.90
7738;DHT22;29398;45.328;5.558;2023-06-10T06:21:52;20.30;99.90
7738;DHT22;29398;45.328;5.558;2023-06-10T06:22:53;20.20;99.90
7738;DHT22;29398;45.328;5.558;2023-06-10T06:23:55;20.20;99.90
7738;DHT22;29398;45.328;5.558;2023-06-10T06:24:56;20.30;99.90
7738;DHT22;29398;45.328;5.558;2023-06-10T06:25:58;20.30;99.90
7738;DHT22;29398;45.328;5.558;2023-06-10T06:26:59;20.30;99.90
7738;DHT22;29398;45.328;5.558;2023-06-10T06:28:01;20.30;99.90
7738;DHT22;29398;45.328;5.558;2023-06-10T06:29:02;20.30;99.90
7738;DHT22;29398;45.328;5.558;2023-06-10T06:30:05;20.30;99.90
7738;DHT22;29398;45.328;5.558;2023-06-10T06:31:07;20.30;99.90
7738;DHT22;29398;45.328;5.558;2023-06-10T06:32:10;20.30;99.90
7738;DHT22;29398;45.328;5.558;2023-06-10T06:33:11;20.40;99.90
7738;DHT22;29398;45.328;5.558;2023-06-10T06:34:13;20.40;99.90
7738;DHT22;29398;45.328;5.558;2023-06-10T06:35:14;20.40;99.90
7738;DHT22;29398;45.328;5.558;2023-06-10T06:36:16;20.40;99.90
7738;DHT22;29398;45.328;5.558;2023-06-10T06:37:17;20.50;99.90
7738;DHT22;29398;45.328;5.558;2023-06-10T06:38:20;20.50;99.90
7738;DHT22;29398;45.328;5.558;2023-06-10T06:39:23;20.50;99.90
7738;DHT22;29398;45.328;5.558;2023-06-10T06:40:25;20.50;99.90
7738;DHT22;29398;45.328;5.558;2023-06-10T06:41:26;20.50;99.90